Time;durP1;ratioP1;P1;durP2;ratioP2;P2;SDS_P1;SDS_P2;PMS_P1;PMS_P2;Temp;Humidity;BMP_temperature;BMP_pressure;BME280_temperature;BME280_humidity;BME280_pressure;Samples;Min_cycle;Max_cycle;Signal;HPM_P1;HPM_P2
2023/08/10 00:02:29;;;;;;;22.63;16.90;;;12.60;99.90;;;;;;25587269;23;20040;-42
2023/08/10 00:12:31;;;;;;;19.83;17.73;;;12.40;99.90;;;;;;25586682;23;20388;-49
2023/08/10 00:22:33;;;;;;;23.45;20.95;;;12.20;99.90;;;;;;25586534;23;20020;-51
2023/08/10 00:32:35;;;;;;;21.30;19.02;;;12.20;99.90;;;;;;25586090;23;20005;-53
2023/08/10 00:42:37;;;;;;;22.08;17.90;;;12.60;99.90;;;;;;25560373;23;20067;-49
2023/08/10 00:52:39;;;;;;;20.45;18.25;;;12.90;99.90;;;;;;25586034;23;20001;-49
2023/08/10 01:02:41;;;;;;;21.75;19.50;;;13.00;99.90;;;;;;25559536;23;20068;-43
2023/08/10 01:12:43;;;;;;;23.92;21.30;;;12.90;99.90;;;;;;25586645;23;20005;-49
2023/08/10 01:22:52;;;;;;;24.58;21.00;;;12.90;99.90;;;;;;25566471;23;20004;-48
2023/08/10 01:32:54;;;;;;;25.47;20.67;;;12.80;99.90;;;;;;25633278;23;20005;-48
2023/08/10 01:42:56;;;;;;;25.13;22.52;;;12.60;99.90;;;;;;25591779;23;20480;-52
2023/08/10 01:53:05;;;;;;;22.40;19.98;;;12.80;99.90;;;;;;25591495;23;20009;-41
2023/08/10 02:03:07;;;;;;;28.57;24.63;;;12.70;99.90;;;;;;25632140;23;20001;-46
2023/08/10 02:13:09;;;;;;;28.70;24.05;;;12.50;99.90;;;;;;25588428;23;20009;-42
2023/08/10 02:23:11;;;;;;;22.50;19.25;;;12.30;99.90;;;;;;25563492;23;20352;-44
2023/08/10 02:33:13;;;;;;;22.80;20.20;;;12.50;99.90;;;;;;25588883;23;20001;-50
2023/08/10 02:43:15;;;;;;;22.88;19.50;;;12.70;99.90;;;;;;25588459;23;20138;-52
2023/08/10 02:53:17;;;;;;;24.25;20.58;;;12.60;99.90;;;;;;25587813;23;20001;-48
2023/08/10 03:03:18;;;;;;;29.45;22.13;;;12.50;99.90;;;;;;25563272;23;20056;-43
2023/08/10 03:13:20;;;;;;;28.77;20.55;;;12.50;99.90;;;;;;25561166;23;20068;-54
2023/08/10 03:23:22;;;;;;;25.23;19.88;;;12.40;99.90;;;;;;25586988;23;20024;-47
2023/08/10 03:33:24;;;;;;;20.23;17.88;;;12.30;99.90;;;;;;25560445;23;20005;-52
2023/08/10 03:43:27;;;;;;;20.25;17.05;;;12.30;99.90;;;;;;25586742;23;20017;-46
2023/08/10 03:53:29;;;;;;;23.50;19.75;;;12.30;99.90;;;;;;25584194;23;20036;-47
2023/08/10 04:03:33;;;;;;;25.52;21.23;;;12.20;99.90;;;;;;25559311;23;20009;-52
2023/08/10 04:13:35;;;;;;;30.38;23.90;;;12.00;99.90;;;;;;25585498;23;20005;-47
2023/08/10 04:23:39;;;;;;;28.63;24.13;;;12.00;99.90;;;;;;25558625;23;20008;-53
2023/08/10 04:33:40;;;;;;;30.63;22.90;;;11.90;99.90;;;;;;25584561;23;20009;-49
2023/08/10 04:43:42;;;;;;;27.48;23.65;;;11.70;99.90;;;;;;25584841;23;20020;-48
2023/08/10 04:53:44;;;;;;;33.88;26.65;;;11.70;99.90;;;;;;25592125;23;20005;-49
2023/08/10 05:03:47;;;;;;;34.17;28.77;;;11.80;99.90;;;;;;25592603;23;20005;-48
2023/08/10 05:13:49;;;;;;;31.95;26.55;;;11.70;99.90;;;;;;25592243;23;20001;-47
2023/08/10 05:23:51;;;;;;;50.55;36.85;;;11.80;99.90;;;;;;25591433;23;20732;-41
2023/08/10 05:33:53;;;;;;;33.03;26.85;;;11.90;99.90;;;;;;25591206;23;20005;-41
2023/08/10 05:43:54;;;;;;;31.95;23.90;;;12.10;99.90;;;;;;25590505;23;20091;-48
2023/08/10 05:53:56;;;;;;;19.75;17.65;;;12.50;99.90;;;;;;25589412;23;20032;-48
2023/08/10 06:03:59;;;;;;;17.60;14.80;;;13.10;99.90;;;;;;25588809;23;20059;-50
2023/08/10 06:14:02;;;;;;;16.63;14.38;;;14.10;99.90;;;;;;25589348;23;20310;-49
2023/08/10 06:24:06;;;;;;;12.70;11.38;;;14.60;99.90;;;;;;25589448;23;20005;-51
2023/08/10 06:34:09;;;;;;;13.57;11.13;;;15.00;99.90;;;;;;25587751;23;20009;-49
2023/08/10 06:44:10;;;;;;;13.73;10.02;;;15.60;99.90;;;;;;25585386;23;20031;-48
2023/08/10 06:54:12;;;;;;;11.07;9.98;;;16.20;99.90;;;;;;25587801;23;20021;-52
2023/08/10 07:04:14;;;;;;;8.52;7.07;;;16.60;99.90;;;;;;25582546;23;20056;-43
2023/08/10 07:14:16;;;;;;;63.58;11.13;;;16.50;99.90;;;;;;25556721;23;20387;-58
2023/08/10 07:24:18;;;;;;;10.75;7.50;;;16.60;99.90;;;;;;25585936;23;20278;-58
2023/08/10 07:34:20;;;;;;;7.40;6.32;;;17.00;99.90;;;;;;25582448;23;20036;-58
2023/08/10 07:44:22;;;;;;;7.50;6.70;;;17.30;99.90;;;;;;25556758;23;20075;-58
2023/08/10 07:54:25;;;;;;;10.15;7.57;;;17.60;99.90;;;;;;25585187;23;20005;-58
2023/08/10 08:04:26;;;;;;;6.43;5.38;;;17.90;99.90;;;;;;25555964;23;20396;-58
2023/08/10 08:14:28;;;;;;;7.82;5.15;;;19.20;99.90;;;;;;25585370;23;20009;-58
2023/08/10 08:24:30;;;;;;;8.77;5.70;;;19.30;99.90;;;;;;25589139;23;20009;-58
2023/08/10 08:34:35;;;;;;;6.45;5.45;;;18.90;99.90;;;;;;25565891;23;20009;-58
2023/08/10 08:44:37;;;;;;;5.88;5.10;;;19.10;99.90;;;;;;25631129;23;20381;-58
2023/08/10 08:54:39;;;;;;;6.57;4.20;;;19.70;99.90;;;;;;25588143;23;20397;-58
2023/08/10 09:04:41;;;;;;;6.40;4.20;;;20.10;99.90;;;;;;25587839;23;20306;-59
2023/08/10 09:15:03;;;;;;;4.82;4.28;;;19.80;99.90;;;;;;25538481;23;20059;-59
2023/08/10 09:25:06;;;;;;;5.28;3.95;;;19.60;99.90;;;;;;25587585;23;20005;-52
2023/08/10 09:35:15;;;;;;;5.35;4.82;;;20.30;99.90;;;;;;25587849;23;20017;-50
2023/08/10 09:45:17;;;;;;;5.43;4.38;;;21.60;99.90;;;;;;25623317;23;20017;-57
2023/08/10 09:55:20;;;;;;;5.30;3.58;;;21.90;99.90;;;;;;25589375;23;20483;-66
2023/08/10 10:05:22;;;;;;;4.78;2.97;;;22.70;99.90;;;;;;25590503;23;20005;-47
2023/08/10 10:15:25;;;;;;;3.15;2.83;;;23.10;99.90;;;;;;25586466;23;20005;-65
2023/08/10 10:25:27;;;;;;;6.53;3.88;;;22.70;99.90;;;;;;25589258;23;20384;-58
2023/08/10 10:35:32;;;;;;;3.85;3.30;;;23.10;99.90;;;;;;25586930;23;20036;-56
2023/08/10 10:45:43;;;;;;;4.15;3.28;;;22.40;99.90;;;;;;25625060;23;20005;-50
2023/08/10 10:55:52;;;;;;;4.75;2.90;;;24.00;99.90;;;;;;25626257;23;20060;-57
2023/08/10 11:05:54;;;;;;;4.63;3.70;;;24.20;99.90;;;;;;25593251;23;20005;-56
2023/08/10 11:15:59;;;;;;;7.00;5.57;;;22.90;99.90;;;;;;25585524;23;20013;-54
2023/08/10 11:26:04;;;;;;;9.13;6.68;;;22.90;99.90;;;;;;25587581;23;20001;-52
2023/08/10 11:36:07;;;;;;;7.85;6.68;;;20.90;99.90;;;;;;25586317;23;20017;-52
2023/08/10 11:46:09;;;;;;;10.40;9.38;;;19.80;99.90;;;;;;25559053;23;20016;-53
2023/08/10 11:56:11;;;;;;;11.30;8.77;;;19.80;99.90;;;;;;25587109;23;20009;-53
2023/08/10 12:06:15;;;;;;;11.73;10.63;;;19.70;99.90;;;;;;25584820;23;20005;-49
2023/08/10 12:16:18;;;;;;;10.85;9.75;;;19.10;99.90;;;;;;25584887;23;20009;-53
2023/08/10 12:26:20;;;;;;;7.97;7.28;;;19.10;99.90;;;;;;25585482;23;20340;-52
2023/08/10 12:36:22;;;;;;;8.30;7.32;;;19.80;99.90;;;;;;25584345;23;20013;-53
2023/08/10 12:46:24;;;;;;;6.95;6.28;;;19.80;99.90;;;;;;25583260;23;20013;-53
2023/08/10 12:56:26;;;;;;;7.00;6.20;;;19.60;99.90;;;;;;25585066;23;20009;-51
2023/08/10 13:06:28;;;;;;;6.50;5.90;;;19.60;99.90;;;;;;25583564;23;20076;-53
2023/08/10 13:16:30;;;;;;;5.68;5.03;;;20.20;99.90;;;;;;25590910;23;20005;-56
2023/08/10 13:26:32;;;;;;;9.07;4.70;;;20.30;99.90;;;;;;25592178;23;20009;-56
2023/08/10 13:36:34;;;;;;;5.82;4.93;;;22.30;99.90;;;;;;25590147;23;20051;-55
2023/08/10 13:46:37;;;;;;;5.20;4.13;;;22.10;99.90;;;;;;25589964;23;20357;-56
2023/08/10 13:57:02;;;;;;;6.85;4.22;;;22.80;99.90;;;;;;25590549;23;20512;-57
2023/08/10 14:07:04;;;;;;;6.55;3.63;;;24.00;99.90;;;;;;25589036;23;20013;-58
2023/08/10 14:17:06;;;;;;;3.97;3.67;;;25.50;99.90;;;;;;25589197;23;20039;-56
2023/08/10 14:27:08;;;;;;;7.18;5.05;;;23.80;99.90;;;;;;25589007;23;20055;-54
2023/08/10 14:37:10;;;;;;;5.32;4.72;;;22.60;99.90;;;;;;25588611;23;20071;-54
2023/08/10 14:47:11;;;;;;;9.57;5.78;;;21.60;99.90;;;;;;25588527;23;20062;-55
2023/08/10 14:57:16;;;;;;;5.63;5.00;;;21.00;99.90;;;;;;25588538;23;20028;-53
2023/08/10 15:07:18;;;;;;;7.70;5.60;;;20.70;99.90;;;;;;25590292;23;20004;-53
2023/08/10 15:17:20;;;;;;;6.10;5.30;;;20.40;99.90;;;;;;25587993;23;20067;-52
2023/08/10 15:27:21;;;;;;;6.40;5.80;;;20.10;99.90;;;;;;25587466;23;20008;-54
2023/08/10 15:37:23;;;;;;;7.63;6.53;;;19.80;99.90;;;;;;25586037;23;20009;-48
2023/08/10 15:47:25;;;;;;;8.95;6.32;;;19.70;99.90;;;;;;25586074;23;20002;-51
2023/08/10 15:57:27;;;;;;;9.07;6.47;;;19.40;99.90;;;;;;25586407;23;20005;-52
2023/08/10 16:07:29;;;;;;;9.55;6.93;;;19.20;99.90;;;;;;25585433;23;20063;-50
2023/08/10 16:17:34;;;;;;;7.40;6.15;;;19.10;99.90;;;;;;25584758;23;20009;-48
2023/08/10 16:27:38;;;;;;;7.60;6.57;;;19.00;99.90;;;;;;25585045;23;20064;-52
2023/08/10 16:37:40;;;;;;;7.20;6.50;;;18.60;99.90;;;;;;25585073;23;20063;-51
2023/08/10 16:47:43;;;;;;;7.35;6.60;;;18.30;99.90;;;;;;25590207;23;20016;-50
2023/08/10 16:57:45;;;;;;;7.45;6.70;;;18.10;99.90;;;;;;25592269;23;20005;-53
2023/08/10 17:07:47;;;;;;;10.25;8.57;;;17.90;99.90;;;;;;25593304;23;20027;-50
2023/08/10 17:17:49;;;;;;;8.38;7.50;;;17.60;99.90;;;;;;25541799;23;20067;-50
2023/08/10 17:27:50;;;;;;;8.80;7.90;;;17.40;99.90;;;;;;25592005;23;20005;-54
2023/08/10 17:37:53;;;;;;;9.70;8.80;;;17.30;99.90;;;;;;25566514;23;20028;-52
2023/08/10 17:47:55;;;;;;;9.13;8.23;;;17.10;99.90;;;;;;25565246;23;20005;-52
2023/08/10 17:57:57;;;;;;;8.63;7.80;;;17.00;99.90;;;;;;25590815;23;19997;-52
2023/08/10 18:08:01;;;;;;;9.63;8.32;;;16.90;99.90;;;;;;25565713;23;20009;-54
2023/08/10 18:18:03;;;;;;;10.25;9.25;;;16.90;99.90;;;;;;25590465;23;20332;-50
2023/08/10 18:28:05;;;;;;;9.60;8.77;;;16.80;99.90;;;;;;25591701;23;20005;-51
2023/08/10 18:38:08;;;;;;;11.15;10.00;;;16.70;99.90;;;;;;25589445;23;20079;-54
2023/08/10 18:48:09;;;;;;;11.13;10.13;;;16.50;99.90;;;;;;25562484;23;20005;-51
2023/08/10 18:58:12;;;;;;;11.98;10.88;;;16.10;99.90;;;;;;25588900;23;20026;-52
2023/08/10 19:08:14;;;;;;;21.52;19.23;;;15.70;99.90;;;;;;25588011;23;20009;-51
2023/08/10 19:18:16;;;;;;;23.73;21.33;;;15.10;99.90;;;;;;25587904;23;20032;-49
2023/08/10 19:28:19;;;;;;;33.05;29.73;;;14.70;99.90;;;;;;25587479;23;20511;-51
2023/08/10 19:38:22;;;;;;;33.30;29.90;;;14.40;99.90;;;;;;25560525;23;20511;-50
2023/08/10 19:48:24;;;;;;;33.75;30.17;;;14.20;99.90;;;;;;25586859;23;20032;-51
2023/08/10 19:58:26;;;;;;;32.05;28.65;;;14.10;99.90;;;;;;25588267;23;20305;-49
2023/08/10 20:08:29;;;;;;;33.25;29.95;;;14.10;99.90;;;;;;25586561;23;20012;-50
2023/08/10 20:18:32;;;;;;;34.95;31.35;;;14.00;99.90;;;;;;25586628;23;20512;-50
2023/08/10 20:28:37;;;;;;;37.63;33.63;;;13.90;99.90;;;;;;25585692;23;20503;-50
2023/08/10 20:38:38;;;;;;;38.92;33.47;;;13.80;99.90;;;;;;25586165;23;20017;-49
2023/08/10 20:48:40;;;;;;;35.83;31.65;;;13.80;99.90;;;;;;25585415;23;20377;-50
2023/08/10 20:58:46;;;;;;;35.35;31.65;;;13.80;99.90;;;;;;25585708;23;20005;-48
2023/08/10 21:08:48;;;;;;;32.17;28.80;;;14.00;99.90;;;;;;25585050;23;20001;-50
2023/08/10 21:18:50;;;;;;;36.17;32.35;;;14.00;99.90;;;;;;25584896;23;20251;-52
2023/08/10 21:28:54;;;;;;;28.95;25.98;;;14.00;99.90;;;;;;25585201;23;20005;-51
2023/08/10 21:38:56;;;;;;;34.20;29.13;;;14.10;99.90;;;;;;25592070;23;20017;-51
2023/08/10 21:48:59;;;;;;;29.35;26.25;;;14.20;99.90;;;;;;25591125;23;20621;-51
2023/08/10 21:59:01;;;;;;;29.00;25.70;;;14.30;99.90;;;;;;25590011;23;20376;-49
2023/08/10 22:09:03;;;;;;;26.75;24.08;;;14.10;99.90;;;;;;25590713;23;20015;-49
2023/08/10 22:19:05;;;;;;;28.55;25.63;;;14.10;99.90;;;;;;25588265;23;20060;-49
2023/08/10 22:29:08;;;;;;;29.65;26.45;;;14.10;99.90;;;;;;25589932;23;20024;-48
2023/08/10 22:39:11;;;;;;;30.00;27.00;;;13.90;99.90;;;;;;25590486;23;20067;-51
2023/08/10 22:49:13;;;;;;;32.38;28.88;;;13.80;99.90;;;;;;25588679;23;20009;-48
2023/08/10 22:59:15;;;;;;;31.55;28.27;;;13.80;99.90;;;;;;25588955;23;20060;-50
2023/08/10 23:09:17;;;;;;;30.20;27.10;;;13.90;99.90;;;;;;25588126;23;20310;-49
2023/08/10 23:19:19;;;;;;;33.80;30.20;;;13.90;99.90;;;;;;25588313;23;20001;-51
2023/08/10 23:29:21;;;;;;;34.60;31.02;;;13.90;99.90;;;;;;25587633;23;20060;-53
2023/08/10 23:39:23;;;;;;;38.28;33.35;;;13.70;99.90;;;;;;25588040;23;20051;-50
2023/08/10 23:49:25;;;;;;;38.95;34.85;;;13.60;99.90;;;;;;25588383;23;20304;-49
2023/08/10 23:59:27;;;;;;;38.45;34.25;;;13.60;99.90;;;;;;25586301;23;20482;-52
